Time;durP1;ratioP1;P1;durP2;ratioP2;P2;SDS_P1;SDS_P2;PMS_P1;PMS_P2;Temp;Humidity;BMP_temperature;BMP_pressure;BME280_temperature;BME280_humidity;BME280_pressure;Samples;Min_cycle;Max_cycle;Signal;HPM_P1;HPM_P2
2023/03/26 00:01:04;;;;;;;;;;;10.30;99.90;;;;;;6277333;22;19904;-82
2023/03/26 00:03:30;;;;;;;;;;;10.20;99.90;;;;;;6251632;22;19903;-82
2023/03/26 00:06:02;;;;;;;;;;;10.30;99.90;;;;;;6280322;22;20249;-83
2023/03/26 00:08:28;;;;;;;;;;;10.30;99.90;;;;;;6251765;22;19904;-82
2023/03/26 00:10:53;;;;;;;;;;;10.20;99.90;;;;;;6253430;22;20290;-82
2023/03/26 00:13:19;;;;;;;;;;;10.30;99.90;;;;;;6253731;22;19911;-82
2023/03/26 00:15:45;;;;;;;;;;;10.40;99.90;;;;;;6250254;22;19908;-82
2023/03/26 00:18:10;;;;;;;;;;;10.30;99.90;;;;;;6249737;22;19910;-82
2023/03/26 00:20:37;;;;;;;;;;;10.40;99.90;;;;;;6249180;22;19942;-82
2023/03/26 00:23:02;;;;;;;;;;;10.50;99.90;;;;;;6275733;22;19904;-82
2023/03/26 00:25:28;;;;;;;;;;;10.50;99.90;;;;;;6249130;22;19914;-81
2023/03/26 00:27:54;;;;;;;;;;;10.50;99.90;;;;;;6248762;22;19941;-82
2023/03/26 00:30:20;;;;;;;;;;;10.60;99.90;;;;;;6248635;22;19909;-83
2023/03/26 00:32:45;;;;;;;;;;;10.60;99.90;;;;;;6248664;22;19957;-83
2023/03/26 00:35:11;;;;;;;;;;;10.70;99.90;;;;;;6248796;22;19990;-83
2023/03/26 00:37:37;;;;;;;;;;;10.70;99.90;;;;;;6248806;22;19910;-82
2023/03/26 00:40:07;;;;;;;;;;;10.70;99.90;;;;;;6249137;22;19986;-83
2023/03/26 00:42:32;;;;;;;;;;;10.80;99.90;;;;;;6275940;22;19953;-82
2023/03/26 00:44:58;;;;;;;;;;;10.80;99.90;;;;;;6275929;22;19918;-82
2023/03/26 00:47:24;;;;;;;;;;;10.70;99.90;;;;;;6248701;22;19903;-82
2023/03/26 00:49:49;;;;;;;;;;;10.70;99.90;;;;;;6248768;22;19904;-82
2023/03/26 00:52:17;;;;;;;;;;;10.70;99.90;;;;;;6248314;22;20249;-82
2023/03/26 00:54:52;;;;;;;;;;;10.70;99.90;;;;;;6248809;22;19910;-82
2023/03/26 00:57:20;;;;;;;;;;;10.70;99.90;;;;;;6276381;22;19907;-82
2023/03/26 00:59:47;;;;;;;;;;;10.70;99.90;;;;;;6276354;22;20229;-82
2023/03/26 01:02:15;;;;;;;;;;;10.70;99.90;;;;;;6276387;22;19950;-82
2023/03/26 01:04:46;;;;;;;;;;;10.70;99.90;;;;;;6248552;22;19982;-82
2023/03/26 01:07:13;;;;;;;;;;;10.70;99.90;;;;;;6250954;22;19910;-82
2023/03/26 01:09:41;;;;;;;;;;;10.70;99.90;;;;;;6278143;22;19911;-82
2023/03/26 01:12:09;;;;;;;;;;;10.60;99.90;;;;;;6277320;22;20347;-82
2023/03/26 01:14:35;;;;;;;;;;;10.50;99.90;;;;;;6278372;22;19914;-83
2023/03/26 01:17:02;;;;;;;;;;;10.50;99.90;;;;;;6277718;22;19903;-82
2023/03/26 01:19:46;;;;;;;;;;;10.40;99.90;;;;;;6250605;22;19953;-82
2023/03/26 01:22:13;;;;;;;;;;;10.30;99.90;;;;;;6250092;22;19929;-81
2023/03/26 01:24:39;;;;;;;;;;;10.10;99.90;;;;;;6250456;22;19903;-82
2023/03/26 01:27:20;;;;;;;;;;;10.00;99.90;;;;;;6250081;22;19911;-82
2023/03/26 01:29:52;;;;;;;;;;;10.00;99.90;;;;;;6250611;22;19915;-82
2023/03/26 01:32:21;;;;;;;;;;;10.00;99.90;;;;;;6249957;22;20351;-82
2023/03/26 01:34:48;;;;;;;;;;;9.90;99.90;;;;;;6250704;22;19903;-82
2023/03/26 01:37:13;;;;;;;;;;;9.90;99.90;;;;;;6250810;22;19978;-82
2023/03/26 01:39:39;;;;;;;;;;;9.80;99.90;;;;;;6251021;22;20252;-82
2023/03/26 01:42:14;;;;;;;;;;;9.70;99.90;;;;;;6250070;22;19942;-82
2023/03/26 01:44:43;;;;;;;;;;;9.70;99.90;;;;;;6277385;22;19904;-82
2023/03/26 01:47:11;;;;;;;;;;;9.60;99.90;;;;;;6250138;22;20218;-82
2023/03/26 01:49:36;;;;;;;;;;;9.50;99.90;;;;;;6277121;22;20240;-81
2023/03/26 01:52:05;;;;;;;;;;;9.50;99.90;;;;;;6249709;22;19950;-82
2023/03/26 01:54:30;;;;;;;;;;;9.50;99.90;;;;;;6249824;22;19904;-81
2023/03/26 01:57:06;;;;;;;;;;;9.30;99.90;;;;;;6277515;22;20313;-82
2023/03/26 01:59:50;;;;;;;;;;;9.30;99.90;;;;;;6250730;22;19971;-82
2023/03/26 02:02:25;;;;;;;;;;;9.30;99.90;;;;;;6250032;22;20321;-82
2023/03/26 02:05:00;;;;;;;;;;;9.30;99.90;;;;;;6250557;22;19980;-82
2023/03/26 02:07:33;;;;;;;;;;;9.30;99.90;;;;;;6277245;22;19908;-81
2023/03/26 02:10:04;;;;;;;;;;;9.40;99.90;;;;;;6250296;22;19990;-82
2023/03/26 02:12:30;;;;;;;;;;;9.40;99.90;;;;;;6276759;22;19904;-82
2023/03/26 02:14:57;;;;;;;;;;;9.40;99.90;;;;;;6250096;22;19911;-82
2023/03/26 02:17:23;;;;;;;;;;;9.40;99.90;;;;;;6249400;22;19904;-82
2023/03/26 02:19:50;;;;;;;;;;;9.50;99.90;;;;;;6280507;22;19914;-82
2023/03/26 02:22:15;;;;;;;;;;;9.60;99.90;;;;;;6269205;22;20396;-81
2023/03/26 02:24:41;;;;;;;;;;;9.60;99.90;;;;;;6296435;22;19906;-83
2023/03/26 02:27:07;;;;;;;;;;;9.60;99.90;;;;;;6268518;22;19911;-82
2023/03/26 02:29:36;;;;;;;;;;;9.60;99.90;;;;;;6262366;22;19903;-83
2023/03/26 02:32:03;;;;;;;;;;;9.60;99.90;;;;;;6267003;22;20244;-83
2023/03/26 02:34:29;;;;;;;;;;;9.70;99.90;;;;;;6284462;22;19907;-83
2023/03/26 02:36:56;;;;;;;;;;;9.70;99.90;;;;;;6283689;22;19919;-83
2023/03/26 02:39:21;;;;;;;;;;;9.80;99.90;;;;;;6255758;22;19903;-83
2023/03/26 02:41:47;;;;;;;;;;;9.80;99.90;;;;;;6255895;22;19980;-83
2023/03/26 02:44:12;;;;;;;;;;;9.80;99.90;;;;;;6256428;22;19904;-83
2023/03/26 02:46:38;;;;;;;;;;;9.90;99.90;;;;;;6255871;22;19908;-83
2023/03/26 02:49:03;;;;;;;;;;;9.90;99.90;;;;;;6258492;22;19986;-83
2023/03/26 02:51:33;;;;;;;;;;;10.00;99.90;;;;;;6261301;22;19903;-83
2023/03/26 02:54:02;;;;;;;;;;;10.10;99.90;;;;;;6261081;22;19935;-83
2023/03/26 02:56:27;;;;;;;;;;;10.00;99.90;;;;;;6261726;22;19904;-82
2023/03/26 02:58:53;;;;;;;;;;;10.00;99.90;;;;;;6261490;22;19904;-82
2023/03/26 03:01:18;;;;;;;;;;;10.00;99.90;;;;;;6255622;22;19903;-83
2023/03/26 03:03:46;;;;;;;;;;;10.10;99.90;;;;;;6282136;22;19911;-83
2023/03/26 03:06:11;;;;;;;;;;;10.10;99.90;;;;;;6256170;22;20222;-82
2023/03/26 03:08:37;;;;;;;;;;;10.10;99.90;;;;;;6256575;22;19903;-83
2023/03/26 03:11:05;;;;;;;;;;;10.20;99.90;;;;;;6259237;22;20276;-83
2023/03/26 03:13:31;;;;;;;;;;;10.30;99.90;;;;;;6260461;22;19903;-82
2023/03/26 03:15:56;;;;;;;;;;;10.30;99.90;;;;;;6260076;22;19910;-83
2023/03/26 03:18:22;;;;;;;;;;;10.20;99.90;;;;;;6255484;22;20249;-83
2023/03/26 03:20:48;;;;;;;;;;;10.20;99.90;;;;;;6282376;22;19904;-82
2023/03/26 03:23:14;;;;;;;;;;;10.30;99.90;;;;;;6254043;22;19935;-83
2023/03/26 03:25:40;;;;;;;;;;;10.30;99.90;;;;;;6254200;22;19907;-83
2023/03/26 03:28:06;;;;;;;;;;;10.40;99.90;;;;;;6281399;22;19910;-82
2023/03/26 03:30:32;;;;;;;;;;;10.40;99.90;;;;;;6253383;22;20340;-82
2023/03/26 03:32:58;;;;;;;;;;;10.50;99.90;;;;;;6281739;22;20321;-83
2023/03/26 03:35:26;;;;;;;;;;;10.50;99.90;;;;;;6253739;22;19903;-83
2023/03/26 03:37:52;;;;;;;;;;;10.50;99.90;;;;;;6255387;22;19926;-83
2023/03/26 03:40:18;;;;;;;;;;;10.60;99.90;;;;;;6253471;22;19911;-82
2023/03/26 03:42:44;;;;;;;;;;;10.60;99.90;;;;;;6253628;22;19903;-82
2023/03/26 03:45:10;;;;;;;;;;;10.60;99.90;;;;;;6253419;22;20347;-82
2023/03/26 03:47:35;;;;;;;;;;;10.60;99.90;;;;;;6254028;22;19975;-82
2023/03/26 03:50:01;;;;;;;;;;;10.60;99.90;;;;;;6256352;22;20321;-83
2023/03/26 03:52:27;;;;;;;;;;;10.60;99.90;;;;;;6252806;22;19903;-83
2023/03/26 03:54:53;;;;;;;;;;;10.60;99.90;;;;;;6253559;22;20303;-83
2023/03/26 03:57:20;;;;;;;;;;;10.50;99.90;;;;;;6280720;22;19910;-83
2023/03/26 03:59:46;;;;;;;;;;;10.50;99.90;;;;;;6280606;22;19909;-82
2023/03/26 04:02:12;;;;;;;;;;;10.40;99.90;;;;;;6253186;22;19939;-82
2023/03/26 04:04:38;;;;;;;;;;;10.40;99.90;;;;;;6255643;22;19986;-82
2023/03/26 04:07:05;;;;;;;;;;;10.30;99.90;;;;;;6256754;22;19911;-82
2023/03/26 04:09:30;;;;;;;;;;;10.30;99.90;;;;;;6281896;22;19903;-82
2023/03/26 04:11:55;;;;;;;;;;;10.20;99.90;;;;;;6252603;22;19910;-83
2023/03/26 04:14:21;;;;;;;;;;;10.10;99.90;;;;;;6279266;22;19926;-83
2023/03/26 04:16:47;;;;;;;;;;;10.10;99.90;;;;;;6280323;22;19926;-83
2023/03/26 04:19:13;;;;;;;;;;;10.00;99.90;;;;;;6280375;22;19911;-83
2023/03/26 04:21:41;;;;;;;;;;;10.00;99.90;;;;;;6257106;22;19903;-82
2023/03/26 04:24:07;;;;;;;;;;;10.00;99.90;;;;;;6252767;22;20218;-82
2023/03/26 04:26:34;;;;;;;;;;;10.10;99.90;;;;;;6252256;22;19907;-82
2023/03/26 04:29:01;;;;;;;;;;;10.00;99.90;;;;;;6279486;22;20218;-82
2023/03/26 04:31:30;;;;;;;;;;;10.00;99.90;;;;;;6252017;22;19903;-82
2023/03/26 04:34:04;;;;;;;;;;;10.00;99.90;;;;;;6251752;22;19909;-83
2023/03/26 04:36:31;;;;;;;;;;;9.90;99.90;;;;;;6279667;22;19903;-83
2023/03/26 04:38:57;;;;;;;;;;;9.90;99.90;;;;;;6279357;22;19951;-83
2023/03/26 04:41:25;;;;;;;;;;;9.90;99.90;;;;;;6255033;22;20394;-82
2023/03/26 04:43:51;;;;;;;;;;;9.80;99.90;;;;;;6284952;22;19903;-82
2023/03/26 04:46:22;;;;;;;;;;;9.80;99.90;;;;;;6256720;22;19930;-82
2023/03/26 04:48:51;;;;;;;;;;;9.70;99.90;;;;;;6281618;22;19903;-82
2023/03/26 04:51:18;;;;;;;;;;;9.70;99.90;;;;;;6282485;22;19926;-82
2023/03/26 04:53:50;;;;;;;;;;;9.70;99.90;;;;;;6280616;22;19903;-83
2023/03/26 04:56:28;;;;;;;;;;;9.60;99.90;;;;;;6280511;22;19907;-82
2023/03/26 04:58:56;;;;;;;;;;;9.60;99.90;;;;;;6253893;22;19904;-82
2023/03/26 05:01:23;;;;;;;;;;;9.60;99.90;;;;;;6256192;22;19930;-82
2023/03/26 05:03:48;;;;;;;;;;;9.60;99.90;;;;;;6257160;22;19909;-82
2023/03/26 05:06:15;;;;;;;;;;;9.70;99.90;;;;;;6283277;22;20372;-82
2023/03/26 05:08:40;;;;;;;;;;;9.60;99.90;;;;;;6255495;22;19911;-82
2023/03/26 05:11:10;;;;;;;;;;;9.60;99.90;;;;;;6280804;22;19903;-82
2023/03/26 05:13:36;;;;;;;;;;;9.60;99.90;;;;;;6280503;22;19910;-82
2023/03/26 05:16:01;;;;;;;;;;;9.70;99.90;;;;;;6253529;22;19925;-82
2023/03/26 05:18:27;;;;;;;;;;;9.80;99.90;;;;;;6253147;22;19938;-82
2023/03/26 05:20:52;;;;;;;;;;;9.90;99.90;;;;;;6252499;22;19910;-82
2023/03/26 05:23:18;;;;;;;;;;;9.90;99.90;;;;;;6280320;22;19904;-83
2023/03/26 05:25:43;;;;;;;;;;;9.90;99.90;;;;;;6252327;22;20391;-83
2023/03/26 05:28:09;;;;;;;;;;;9.90;99.90;;;;;;6280068;22;19910;-82
2023/03/26 05:30:35;;;;;;;;;;;9.90;99.90;;;;;;6255254;22;19911;-82
2023/03/26 05:33:01;;;;;;;;;;;9.90;99.90;;;;;;6253372;22;19903;-82
2023/03/26 05:35:26;;;;;;;;;;;9.90;99.90;;;;;;6254926;22;19903;-82
2023/03/26 05:37:52;;;;;;;;;;;10.00;99.90;;;;;;6280183;22;19903;-82
2023/03/26 05:40:18;;;;;;;;;;;9.90;99.90;;;;;;6281178;22;20317;-82
2023/03/26 05:42:44;;;;;;;;;;;9.80;99.90;;;;;;6255334;22;19953;-81
2023/03/26 05:45:11;;;;;;;;;;;9.80;99.90;;;;;;6253697;22;19908;-83
2023/03/26 05:47:36;;;;;;;;;;;9.70;99.90;;;;;;6279569;22;20163;-82
2023/03/26 05:50:02;;;;;;;;;;;9.60;99.90;;;;;;6251703;22;20340;-82
2023/03/26 05:52:28;;;;;;;;;;;9.60;99.90;;;;;;6278422;22;20342;-82
2023/03/26 05:54:53;;;;;;;;;;;9.60;99.90;;;;;;6251954;22;20284;-82
2023/03/26 05:57:21;;;;;;;;;;;9.50;99.90;;;;;;6251921;22;19929;-82
2023/03/26 05:59:46;;;;;;;;;;;9.50;99.90;;;;;;6251833;22;19903;-82
2023/03/26 06:02:12;;;;;;;;;;;9.50;99.90;;;;;;6278401;22;19939;-82
2023/03/26 06:04:39;;;;;;;;;;;9.50;99.90;;;;;;6252727;22;19903;-83
2023/03/26 06:07:08;;;;;;;;;;;9.60;99.90;;;;;;6279470;22;19949;-83
2023/03/26 06:09:37;;;;;;;;;;;9.60;99.90;;;;;;6252566;22;20354;-82
2023/03/26 06:12:03;;;;;;;;;;;9.60;99.90;;;;;;6278373;22;20288;-82
2023/03/26 06:14:29;;;;;;;;;;;9.60;99.90;;;;;;6251623;22;19910;-83
2023/03/26 06:16:54;;;;;;;;;;;9.60;99.90;;;;;;6278960;22;20319;-83
2023/03/26 06:19:20;;;;;;;;;;;9.60;99.90;;;;;;6251583;22;19907;-83
2023/03/26 06:21:45;;;;;;;;;;;9.60;99.90;;;;;;6251026;22;19935;-83
2023/03/26 06:24:10;;;;;;;;;;;9.60;99.90;;;;;;6278960;22;19903;-82
2023/03/26 06:26:36;;;;;;;;;;;9.60;99.90;;;;;;6250756;22;20244;-83
2023/03/26 06:29:02;;;;;;;;;;;9.60;99.90;;;;;;6278573;22;19987;-82
2023/03/26 06:31:27;;;;;;;;;;;9.60;99.90;;;;;;6250728;22;19973;-82
2023/03/26 06:33:52;;;;;;;;;;;9.60;99.90;;;;;;6250812;22;19903;-83
2023/03/26 06:36:18;;;;;;;;;;;9.70;99.90;;;;;;6250717;22;19945;-83
2023/03/26 06:38:44;;;;;;;;;;;9.70;99.90;;;;;;6250821;22;19903;-83
2023/03/26 06:56:36;;;;;;;;;;;9.50;99.90;;;;;;6246942;23;19920;-89
2023/03/26 06:59:01;;;;;;;;;;;9.40;99.90;;;;;;6270195;22;20325;-89
2023/03/26 07:01:27;;;;;;;;;;;9.40;99.90;;;;;;6269813;22;19903;-89
2023/03/26 07:03:52;;;;;;;;;;;9.40;99.90;;;;;;6270081;22;20244;-89
2023/03/26 07:06:18;;;;;;;;;;;9.50;99.90;;;;;;6269903;22;20676;-89
2023/03/26 07:08:43;;;;;;;;;;;9.60;99.90;;;;;;6273078;22;19943;-83
2023/03/26 07:11:09;;;;;;;;;;;9.60;99.90;;;;;;6273295;22;20340;-83
2023/03/26 07:13:38;;;;;;;;;;;9.70;99.90;;;;;;6250973;23;20313;-83
2023/03/26 07:16:05;;;;;;;;;;;9.70;99.90;;;;;;6273486;22;19904;-82
2023/03/26 07:18:30;;;;;;;;;;;9.70;99.90;;;;;;6273255;22;19987;-82
2023/03/26 07:20:56;;;;;;;;;;;9.70;99.90;;;;;;6246194;23;19956;-83
2023/03/26 07:23:24;;;;;;;;;;;9.70;99.90;;;;;;6245250;23;20276;-83
2023/03/26 07:25:51;;;;;;;;;;;9.60;99.90;;;;;;6247749;22;19912;-82
2023/03/26 07:28:26;;;;;;;;;;;9.60;99.90;;;;;;6272129;22;19924;-82
2023/03/26 07:30:52;;;;;;;;;;;9.60;99.90;;;;;;6248050;23;19904;-82
2023/03/26 07:33:24;;;;;;;;;;;9.50;99.90;;;;;;6248101;23;19946;-82
2023/03/26 07:36:05;;;;;;;;;;;9.50;99.90;;;;;;6247402;23;20252;-83
2023/03/26 07:39:01;;;;;;;;;;;9.50;99.90;;;;;;6247158;22;19907;-83
2023/03/26 07:41:47;;;;;;;;;;;9.50;99.90;;;;;;6244923;23;19927;-83
2023/03/26 07:44:35;;;;;;;;;;;9.50;99.90;;;;;;6245655;23;19903;-83
2023/03/26 07:54:11;;;;;;;;;;;9.50;99.90;;;;;;6245151;22;19907;-83
2023/03/26 08:20:12;;;;;;;;;;;9.50;99.90;;;;;;6297163;22;19920;-83
2023/03/26 08:22:57;;;;;;;;;;;9.50;99.90;;;;;;6251155;22;20344;-83
2023/03/26 08:26:18;;;;;;;;;;;9.50;99.90;;;;;;6250489;22;19911;-82
2023/03/26 08:49:55;;;;;;;;;;;9.70;99.90;;;;;;6306826;22;19918;-89
2023/03/26 08:52:32;;;;;;;;;;;9.60;99.90;;;;;;6305434;22;19982;-89
2023/03/26 08:55:17;;;;;;;;;;;9.70;99.90;;;;;;6279922;22;19907;-90
2023/03/26 08:57:48;;;;;;;;;;;9.60;99.90;;;;;;6279857;22;19907;-89
2023/03/26 09:00:31;;;;;;;;;;;9.80;99.90;;;;;;6277666;22;19985;-88
2023/03/26 09:03:04;;;;;;;;;;;9.70;99.90;;;;;;6217830;23;19912;-88
2023/03/26 09:05:48;;;;;;;;;;;9.80;99.90;;;;;;6217842;23;19982;-89
2023/03/26 09:08:24;;;;;;;;;;;9.80;99.90;;;;;;6218359;23;19939;-88
2023/03/26 09:11:07;;;;;;;;;;;9.80;99.90;;;;;;6218003;23;19904;-88
2023/03/26 09:13:44;;;;;;;;;;;9.80;99.90;;;;;;6218204;23;20277;-88
2023/03/26 09:16:24;;;;;;;;;;;9.70;99.90;;;;;;6218100;23;19903;-88
2023/03/26 09:19:08;;;;;;;;;;;9.60;99.90;;;;;;6218549;23;20340;-88
2023/03/26 09:22:09;;;;;;;;;;;9.50;99.90;;;;;;6244426;23;19911;-88
2023/03/26 09:24:37;;;;;;;;;;;9.50;99.90;;;;;;6097971;23;20087;-88
2023/03/26 09:27:20;;;;;;;;;;;9.50;99.90;;;;;;6195813;23;19907;-89
2023/03/26 09:30:05;;;;;;;;;;;9.40;99.90;;;;;;6220184;23;19912;-89
2023/03/26 09:32:49;;;;;;;;;;;9.40;99.90;;;;;;6219785;23;19904;-89
2023/03/26 09:35:34;;;;;;;;;;;9.40;99.90;;;;;;6219772;23;19904;-89
2023/03/26 09:38:10;;;;;;;;;;;9.50;99.90;;;;;;6220269;23;19908;-90
2023/03/26 09:40:35;;;;;;;;;;;9.50;99.90;;;;;;6220845;23;20330;-90
2023/03/26 09:43:20;;;;;;;;;;;9.60;99.90;;;;;;6220538;23;19904;-91
2023/03/26 09:46:04;;;;;;;;;;;9.60;99.90;;;;;;6220519;23;20303;-90
2023/03/26 09:48:39;;;;;;;;;;;9.60;99.90;;;;;;6220444;23;19939;-91
2023/03/26 09:51:07;;;;;;;;;;;9.70;99.90;;;;;;6220776;23;20241;-90
2023/03/26 09:53:50;;;;;;;;;;;9.70;99.90;;;;;;6220599;23;19930;-90
2023/03/26 09:56:24;;;;;;;;;;;9.80;99.90;;;;;;6220730;23;19915;-90
2023/03/26 09:58:54;;;;;;;;;;;9.90;99.90;;;;;;6220689;23;20313;-90
2023/03/26 10:01:39;;;;;;;;;;;10.00;99.90;;;;;;6215570;23;19912;-90
2023/03/26 10:04:26;;;;;;;;;;;10.10;99.90;;;;;;6215624;23;19904;-89
2023/03/26 10:06:57;;;;;;;;;;;10.10;99.90;;;;;;6215261;23;19980;-90
2023/03/26 10:09:35;;;;;;;;;;;10.20;99.90;;;;;;6215610;23;19935;-90
2023/03/26 10:12:20;;;;;;;;;;;10.30;99.90;;;;;;6215724;23;19911;-89
2023/03/26 10:14:51;;;;;;;;;;;10.40;99.90;;;;;;6212664;23;19908;-89
2023/03/26 10:17:39;;;;;;;;;;;10.50;99.90;;;;;;6216822;23;19908;-88
2023/03/26 10:20:23;;;;;;;;;;;10.50;99.90;;;;;;6213664;23;19931;-88
2023/03/26 10:22:55;;;;;;;;;;;10.50;99.90;;;;;;6214372;23;20277;-87
2023/03/26 10:25:27;;;;;;;;;;;10.40;99.90;;;;;;6214097;23;19915;-88
2023/03/26 10:27:59;;;;;;;;;;;10.40;99.90;;;;;;6214277;23;19942;-88
2023/03/26 10:30:30;;;;;;;;;;;10.30;99.90;;;;;;6213983;23;20014;-88
2023/03/26 10:33:15;;;;;;;;;;;10.30;99.90;;;;;;6214288;23;19908;-88
2023/03/26 10:36:00;;;;;;;;;;;10.40;99.90;;;;;;6214066;23;19990;-89
2023/03/26 10:38:54;;;;;;;;;;;10.60;99.90;;;;;;6213666;23;19908;-88
2023/03/26 10:41:35;;;;;;;;;;;10.70;99.90;;;;;;6213006;23;20336;-88
2023/03/26 10:44:12;;;;;;;;;;;10.60;99.90;;;;;;6214695;23;19915;-89
2023/03/26 10:46:56;;;;;;;;;;;10.60;99.90;;;;;;6215642;23;20338;-90
2023/03/26 10:49:47;;;;;;;;;;;10.60;99.90;;;;;;6216224;23;19982;-90
2023/03/26 10:52:16;;;;;;;;;;;10.70;99.90;;;;;;6215820;23;19904;-91
2023/03/26 10:54:47;;;;;;;;;;;10.80;99.90;;;;;;6216353;23;19904;-88
2023/03/26 10:57:19;;;;;;;;;;;10.90;99.90;;;;;;6214651;23;19904;-90
2023/03/26 10:59:45;;;;;;;;;;;11.00;99.90;;;;;;6214740;23;19979;-88
2023/03/26 11:02:25;;;;;;;;;;;11.10;99.90;;;;;;6213629;23;19943;-88
2023/03/26 11:05:19;;;;;;;;;;;11.10;99.90;;;;;;6214228;23;19904;-88
2023/03/26 11:07:50;;;;;;;;;;;11.10;99.90;;;;;;6213202;23;19915;-89
2023/03/26 11:10:35;;;;;;;;;;;11.10;99.90;;;;;;6213964;23;19915;-89
2023/03/26 11:13:14;;;;;;;;;;;11.20;99.90;;;;;;6214282;23;19935;-92
2023/03/26 11:15:48;;;;;;;;;;;11.30;99.90;;;;;;6215864;23;19970;-88
2023/03/26 11:18:14;;;;;;;;;;;11.50;99.90;;;;;;6214156;23;19907;-89
2023/03/26 11:20:42;;;;;;;;;;;11.50;99.90;;;;;;6213588;23;20324;-89
2023/03/26 11:23:27;;;;;;;;;;;11.70;99.90;;;;;;6213874;23;19911;-88
2023/03/26 11:26:03;;;;;;;;;;;11.70;99.90;;;;;;6213700;23;19911;-89
2023/03/26 11:28:32;;;;;;;;;;;11.70;99.90;;;;;;6214411;23;19904;-88
2023/03/26 11:31:03;;;;;;;;;;;11.60;99.90;;;;;;6213552;23;19908;-87
2023/03/26 11:33:31;;;;;;;;;;;11.50;99.90;;;;;;6214121;23;19904;-88
2023/03/26 11:36:00;;;;;;;;;;;11.30;99.90;;;;;;6213168;23;19995;-88
2023/03/26 11:38:32;;;;;;;;;;;11.20;99.90;;;;;;6214291;23;19920;-88
2023/03/26 11:41:04;;;;;;;;;;;11.10;99.90;;;;;;6213040;23;19943;-89
2023/03/26 11:43:33;;;;;;;;;;;11.10;99.90;;;;;;6213438;23;19904;-88
2023/03/26 11:46:00;;;;;;;;;;;11.10;99.90;;;;;;6214560;23;19912;-88
2023/03/26 11:48:38;;;;;;;;;;;11.10;99.90;;;;;;6214594;23;20033;-87
2023/03/26 11:51:13;;;;;;;;;;;11.10;99.90;;;;;;6213131;23;19911;-87
2023/03/26 11:53:39;;;;;;;;;;;11.00;99.90;;;;;;6214083;23;19983;-89
2023/03/26 11:56:13;;;;;;;;;;;11.10;99.90;;;;;;6214966;23;19904;-87
2023/03/26 11:58:46;;;;;;;;;;;11.30;99.90;;;;;;6214870;23;19919;-88
2023/03/26 12:01:32;;;;;;;;;;;11.40;99.90;;;;;;6214309;23;20098;-87
2023/03/26 12:04:02;;;;;;;;;;;11.40;99.90;;;;;;6205571;23;19904;-87
2023/03/26 12:06:28;;;;;;;;;;;11.50;99.90;;;;;;6216815;23;19989;-88
2023/03/26 12:08:54;;;;;;;;;;;11.50;99.90;;;;;;6219990;23;19908;-87
2023/03/26 12:11:23;;;;;;;;;;;11.50;99.90;;;;;;6233579;23;19908;-88
2023/03/26 12:13:53;;;;;;;;;;;11.60;99.90;;;;;;6215783;23;19904;-89
2023/03/26 12:16:20;;;;;;;;;;;11.60;99.90;;;;;;6213419;23;20309;-88
2023/03/26 12:18:56;;;;;;;;;;;11.70;99.90;;;;;;6213330;23;19991;-89
2023/03/26 12:21:22;;;;;;;;;;;11.80;99.90;;;;;;6212164;23;19911;-91
2023/03/26 12:24:12;;;;;;;;;;;11.80;99.90;;;;;;6212844;23;19904;-90
2023/03/26 12:26:45;;;;;;;;;;;11.90;99.90;;;;;;6213076;23;19908;-90
2023/03/26 12:29:12;;;;;;;;;;;12.10;99.90;;;;;;6213032;23;19911;-91
2023/03/26 12:32:02;;;;;;;;;;;12.30;99.90;;;;;;6212250;23;19937;-91
2023/03/26 12:34:33;;;;;;;;;;;12.70;99.90;;;;;;6212898;23;19903;-90
2023/03/26 12:37:00;;;;;;;;;;;13.00;99.90;;;;;;6213399;23;20340;-91
2023/03/26 12:39:48;;;;;;;;;;;13.40;99.90;;;;;;6213218;23;19915;-91
2023/03/26 12:42:23;;;;;;;;;;;13.50;99.90;;;;;;6212319;23;19907;-91
2023/03/26 12:44:50;;;;;;;;;;;13.70;99.90;;;;;;6213140;23;19908;-91
2023/03/26 12:47:26;;;;;;;;;;;13.80;99.90;;;;;;6213058;23;20253;-90
2023/03/26 12:49:55;;;;;;;;;;;13.80;99.90;;;;;;6212981;23;19904;-91
2023/03/26 12:52:29;;;;;;;;;;;13.70;99.90;;;;;;6212268;23;19904;-90
2023/03/26 12:55:02;;;;;;;;;;;13.70;99.90;;;;;;6213195;23;19915;-91
2023/03/26 13:03:41;;;;;;;;;;;13.50;99.90;;;;;;6248828;23;20379;-88
2023/03/26 13:06:10;;;;;;;;;;;13.30;99.90;;;;;;6220899;23;19911;-88
2023/03/26 13:08:45;;;;;;;;;;;13.10;99.90;;;;;;6247133;23;20337;-88
2023/03/26 13:11:23;;;;;;;;;;;13.20;99.90;;;;;;6219084;23;19987;-89
2023/03/26 13:13:58;;;;;;;;;;;13.30;99.90;;;;;;6219979;23;19907;-88
2023/03/26 13:16:44;;;;;;;;;;;13.20;99.90;;;;;;6220718;23;19978;-88
2023/03/26 13:19:27;;;;;;;;;;;13.40;99.90;;;;;;6219884;23;20280;-89
2023/03/26 13:22:31;;;;;;;;;;;13.60;99.90;;;;;;6211078;23;20353;-89
2023/03/26 13:25:09;;;;;;;;;;;13.70;99.90;;;;;;6100248;23;19972;-88
2023/03/26 13:27:45;;;;;;;;;;;13.80;99.90;;;;;;6124997;23;20216;-88
2023/03/26 13:30:21;;;;;;;;;;;13.80;99.90;;;;;;6198582;23;19903;-88
2023/03/26 13:32:50;;;;;;;;;;;13.90;99.90;;;;;;6247607;23;19904;-88
2023/03/26 13:35:37;;;;;;;;;;;13.20;99.90;;;;;;6221720;23;19908;-89
2023/03/26 13:38:14;;;;;;;;;;;12.80;99.90;;;;;;6220398;23;20306;-89
2023/03/26 13:40:46;;;;;;;;;;;12.60;99.90;;;;;;6219735;23;19942;-88
2023/03/26 13:43:27;;;;;;;;;;;12.70;99.90;;;;;;6219634;23;19907;-87
2023/03/26 13:45:58;;;;;;;;;;;12.40;99.90;;;;;;6219527;23;19912;-88
2023/03/26 13:48:40;;;;;;;;;;;12.30;99.90;;;;;;6226513;23;19915;-86
2023/03/26 13:51:35;;;;;;;;;;;12.30;99.90;;;;;;6227990;23;19947;-86
2023/03/26 13:54:09;;;;;;;;;;;12.50;99.90;;;;;;6220059;23;19903;-87
2023/03/26 13:56:51;;;;;;;;;;;12.80;99.90;;;;;;6219797;23;19908;-89
2023/03/26 13:59:38;;;;;;;;;;;12.90;99.90;;;;;;6218885;23;19903;-92
2023/03/26 14:02:16;;;;;;;;;;;13.10;99.90;;;;;;6217291;23;19912;-87
2023/03/26 14:04:51;;;;;;;;;;;13.40;99.90;;;;;;6220197;23;19946;-88
2023/03/26 14:07:24;;;;;;;;;;;13.60;99.90;;;;;;6220274;23;19954;-87
2023/03/26 14:10:00;;;;;;;;;;;13.80;99.90;;;;;;6219652;23;19904;-87
2023/03/26 14:12:48;;;;;;;;;;;14.10;99.90;;;;;;6219517;23;20041;-87
2023/03/26 14:15:13;;;;;;;;;;;14.70;99.90;;;;;;6220213;23;19942;-88
2023/03/26 14:18:04;;;;;;;;;;;14.70;99.90;;;;;;6222306;23;19908;-88
2023/03/26 14:20:59;;;;;;;;;;;14.50;99.90;;;;;;6219561;23;20332;-87
2023/03/26 14:26:42;;;;;;;;;;;14.90;99.90;;;;;;6246395;23;19914;-87
2023/03/26 14:29:07;;;;;;;;;;;15.10;99.90;;;;;;6219200;23;19927;-87
2023/03/26 14:31:45;;;;;;;;;;;15.10;99.90;;;;;;6219970;23;19904;-87
2023/03/26 14:34:30;;;;;;;;;;;14.50;99.90;;;;;;6219574;23;19903;-86
2023/03/26 14:36:58;;;;;;;;;;;14.10;99.90;;;;;;6219309;23;19931;-87
2023/03/26 14:40:07;;;;;;;;;;;14.20;99.90;;;;;;6220007;23;19930;-86
2023/03/26 14:42:38;;;;;;;;;;;13.80;99.90;;;;;;6099167;23;19909;-86
2023/03/26 14:45:09;;;;;;;;;;;13.60;99.90;;;;;;6099260;23;20048;-87
2023/03/26 14:47:50;;;;;;;;;;;13.60;99.90;;;;;;6167241;23;19915;-86
2023/03/26 14:50:29;;;;;;;;;;;13.60;99.90;;;;;;6219424;23;19935;-86
2023/03/26 14:55:47;;;;;;;;;;;14.10;99.90;;;;;;6241700;23;19963;-86
2023/03/26 14:58:34;;;;;;;;;;;14.10;99.90;;;;;;6219081;23;19938;-86
2023/03/26 15:01:13;;;;;;;;;;;14.30;99.90;;;;;;6181446;22;19921;-80
2023/03/26 15:03:54;;;;;;;;;;;14.30;99.90;;;;;;6122660;23;19913;-83
2023/03/26 15:06:19;;;;;;;;;;;13.90;99.90;;;;;;6121921;23;20095;-83
2023/03/26 15:08:51;;;;;;;;;;;13.50;99.90;;;;;;6122274;23;19905;-83
2023/03/26 15:11:24;;;;;;;;;;;13.40;99.90;;;;;;6121131;23;19906;-83
2023/03/26 15:13:58;;;;;;;;;;;13.30;99.90;;;;;;6096474;23;19906;-83
2023/03/26 15:16:29;;;;;;;;;;;13.20;99.90;;;;;;6098538;23;19913;-83
2023/03/26 15:19:15;;;;;;;;;;;13.50;99.90;;;;;;6098470;23;19906;-84
2023/03/26 15:21:54;;;;;;;;;;;13.30;99.90;;;;;;6098376;23;19955;-82
2023/03/26 15:24:36;;;;;;;;;;;12.90;99.90;;;;;;6098361;23;19906;-83
2023/03/26 15:27:14;;;;;;;;;;;12.40;99.90;;;;;;6098110;23;19909;-83
2023/03/26 15:29:54;;;;;;;;;;;12.20;99.90;;;;;;6098213;23;20315;-83
2023/03/26 15:32:39;;;;;;;;;;;11.80;99.90;;;;;;6095647;23;19909;-83
2023/03/26 15:35:15;;;;;;;;;;;11.70;99.90;;;;;;6096376;23;20291;-82
2023/03/26 15:37:43;;;;;;;;;;;11.50;99.90;;;;;;6098060;23;19916;-82
2023/03/26 15:40:28;;;;;;;;;;;11.40;99.90;;;;;;6095867;23;19906;-82
2023/03/26 15:42:53;;;;;;;;;;;11.30;99.90;;;;;;6095566;23;19906;-82
2023/03/26 15:45:37;;;;;;;;;;;11.30;99.90;;;;;;6095728;23;20047;-82
2023/03/26 15:48:12;;;;;;;;;;;11.10;99.90;;;;;;6095195;23;19909;-83
2023/03/26 15:50:50;;;;;;;;;;;11.00;99.90;;;;;;6094390;23;19912;-81
2023/03/26 15:53:34;;;;;;;;;;;10.90;99.90;;;;;;6094877;23;19905;-83
2023/03/26 15:56:18;;;;;;;;;;;11.00;99.90;;;;;;6096000;23;19940;-82
2023/03/26 15:58:54;;;;;;;;;;;10.90;99.90;;;;;;6097509;23;19905;-83
2023/03/26 16:01:38;;;;;;;;;;;10.90;99.90;;;;;;6110095;23;19988;-83
2023/03/26 16:04:23;;;;;;;;;;;10.80;99.90;;;;;;6100102;23;19905;-82
2023/03/26 16:06:52;;;;;;;;;;;10.80;99.90;;;;;;6100311;23;19909;-81
2023/03/26 16:09:18;;;;;;;;;;;10.70;99.90;;;;;;6098938;23;19948;-82